Time;durP1;ratioP1;P1;durP2;ratioP2;P2;SDS_P1;SDS_P2;PMS_P1;PMS_P2;Temp;Humidity;BMP_temperature;BMP_pressure;BME280_temperature;BME280_humidity;BME280_pressure;Samples;Min_cycle;Max_cycle;Signal;HPM_P1;HPM_P2
2022/08/23 00:01:27;;;;;;;7.47;2.63;;;21.00;99.90;;;;;;5069544;28;25063;-73
2022/08/23 00:03:55;;;;;;;8.00;3.38;;;20.90;99.90;;;;;;5053820;28;25065;-75
2022/08/23 00:06:21;;;;;;;9.38;2.95;;;21.00;99.90;;;;;;5060107;28;25070;-73
2022/08/23 00:08:48;;;;;;;6.28;2.90;;;21.10;99.90;;;;;;5054174;28;25045;-72
2022/08/23 00:11:50;;;;;;;8.32;3.28;;;21.00;99.90;;;;;;5056010;28;25117;-74
2022/08/23 00:14:26;;;;;;;7.03;3.20;;;20.80;99.90;;;;;;5045242;28;25070;-72
2022/08/23 00:16:52;;;;;;;10.00;3.38;;;20.70;99.90;;;;;;5056876;28;25124;-75
2022/08/23 00:19:19;;;;;;;5.40;3.13;;;20.60;99.90;;;;;;5049544;28;25102;-74
2022/08/23 00:21:46;;;;;;;14.73;3.30;;;20.50;99.90;;;;;;5056459;28;25166;-73
2022/08/23 00:24:12;;;;;;;8.73;4.13;;;20.70;99.90;;;;;;5052416;28;25093;-75
2022/08/23 00:26:59;;;;;;;6.05;2.75;;;20.70;99.90;;;;;;5052957;28;25149;-73
2022/08/23 00:29:29;;;;;;;8.88;3.20;;;20.70;99.90;;;;;;5060389;28;25083;-73
2022/08/23 00:31:55;;;;;;;6.13;2.50;;;20.60;99.90;;;;;;5042956;28;25112;-72
2022/08/23 00:34:21;;;;;;;5.70;2.50;;;20.60;99.90;;;;;;5064402;28;25074;-73
2022/08/23 00:36:48;;;;;;;4.10;2.30;;;20.50;99.90;;;;;;5051216;28;25075;-73
2022/08/23 00:39:15;;;;;;;7.60;3.00;;;20.50;99.90;;;;;;5057825;28;25160;-73
2022/08/23 00:41:42;;;;;;;5.30;2.95;;;20.50;99.90;;;;;;5062344;28;25062;-73
2022/08/23 00:50:14;;;;;;;11.27;3.45;;;20.40;99.90;;;;;;5050478;28;25064;-74
2022/08/23 00:53:05;;;;;;;7.43;3.50;;;20.40;99.90;;;;;;5068370;28;25080;-74
2022/08/23 00:55:32;;;;;;;6.18;2.75;;;20.40;99.90;;;;;;5058836;28;25071;-72
2022/08/23 00:57:58;;;;;;;4.88;2.95;;;20.40;99.90;;;;;;5056363;28;25071;-75
2022/08/23 01:00:24;;;;;;;7.20;2.38;;;20.40;99.90;;;;;;5059980;28;25057;-74
2022/08/23 01:02:51;;;;;;;7.35;3.28;;;20.50;99.90;;;;;;5068556;28;25095;-74
2022/08/23 01:05:16;;;;;;;12.55;2.92;;;20.50;99.90;;;;;;5069851;28;25136;-74
2022/08/23 01:07:50;;;;;;;7.55;3.05;;;20.50;99.90;;;;;;5068551;28;25083;-72
2022/08/23 01:10:24;;;;;;;6.80;2.97;;;20.50;99.90;;;;;;5059443;28;25191;-72
2022/08/23 01:12:58;;;;;;;9.10;2.70;;;20.50;99.90;;;;;;5064029;28;25072;-74
2022/08/23 01:15:31;;;;;;;7.22;3.00;;;20.50;99.90;;;;;;5056567;28;25179;-74
2022/08/23 01:18:09;;;;;;;6.72;2.83;;;20.60;99.90;;;;;;5079228;28;25085;-74
2022/08/23 01:20:42;;;;;;;9.50;2.47;;;20.50;99.90;;;;;;5071015;28;25161;-75
2022/08/23 01:23:39;;;;;;;7.05;2.42;;;20.40;99.90;;;;;;5067487;28;25072;-75
2022/08/23 01:26:05;;;;;;;7.97;3.30;;;20.40;99.90;;;;;;5061467;28;25139;-74
2022/08/23 01:28:32;;;;;;;5.65;2.95;;;20.50;99.90;;;;;;5055333;28;25139;-74
2022/08/23 01:30:58;;;;;;;10.07;3.35;;;20.50;99.90;;;;;;5062729;28;25094;-74
2022/08/23 01:33:24;;;;;;;9.32;2.88;;;20.50;99.90;;;;;;5059117;28;25055;-74
2022/08/23 01:35:54;;;;;;;6.80;2.50;;;20.50;99.90;;;;;;5055192;28;25057;-75
2022/08/23 01:38:21;;;;;;;5.60;2.65;;;20.60;99.90;;;;;;5057813;28;25067;-75
2022/08/23 01:40:46;;;;;;;12.23;2.60;;;20.70;99.90;;;;;;5055039;28;25120;-74
2022/08/23 01:43:14;;;;;;;9.18;3.63;;;20.70;99.90;;;;;;5047431;28;25065;-75
2022/08/23 01:45:41;;;;;;;4.35;2.80;;;20.70;99.90;;;;;;5062496;28;25055;-74
2022/08/23 01:48:07;;;;;;;10.68;3.50;;;20.70;99.90;;;;;;5053930;28;25115;-74
2022/08/23 01:50:33;;;;;;;4.03;2.58;;;20.70;99.90;;;;;;5064923;28;25066;-74
2022/08/23 01:53:00;;;;;;;4.40;2.55;;;20.70;99.90;;;;;;5052358;28;25169;-74
2022/08/23 01:55:26;;;;;;;4.28;2.70;;;20.80;99.90;;;;;;5049593;28;25082;-75
2022/08/23 01:57:59;;;;;;;6.72;3.20;;;20.90;99.90;;;;;;5052086;28;25119;-75
2022/08/23 02:00:38;;;;;;;8.35;3.22;;;21.00;99.90;;;;;;5056998;28;25108;-73
2022/08/23 02:03:05;;;;;;;7.32;3.33;;;21.10;99.90;;;;;;5052432;28;25140;-73
2022/08/23 02:05:31;;;;;;;8.13;3.08;;;21.10;99.90;;;;;;5059367;28;25071;-74
2022/08/23 02:08:59;;;;;;;5.13;2.65;;;21.20;99.90;;;;;;5054876;28;25106;-73
2022/08/23 02:10:42;;;;;;;7.00;3.17;;;21.20;99.90;;;;;;5059826;28;25066;-74
2022/08/23 02:13:07;;;;;;;5.82;3.42;;;21.00;99.90;;;;;;5059549;28;25071;-74
2022/08/23 02:15:33;;;;;;;6.53;3.67;;;20.90;99.90;;;;;;5061872;28;25120;-75
2022/08/23 02:17:59;;;;;;;5.50;2.75;;;20.80;99.90;;;;;;5051240;28;25109;-74
2022/08/23 02:20:24;;;;;;;4.43;2.80;;;20.90;99.90;;;;;;5053374;28;25126;-73
2022/08/23 02:22:50;;;;;;;6.75;2.80;;;20.80;99.90;;;;;;5057571;28;25169;-74
2022/08/23 02:25:16;;;;;;;8.35;2.92;;;20.60;99.90;;;;;;5051933;28;25072;-73
2022/08/23 02:27:41;;;;;;;11.63;3.50;;;20.60;99.90;;;;;;5061753;28;25152;-73
2022/08/23 02:30:07;;;;;;;7.30;3.63;;;20.60;99.90;;;;;;5055819;28;25068;-75
2022/08/23 02:32:33;;;;;;;5.32;3.17;;;20.60;99.90;;;;;;5050894;28;25107;-74
2022/08/23 02:34:58;;;;;;;7.70;3.00;;;20.60;99.90;;;;;;5048331;28;25084;-74
2022/08/23 02:37:24;;;;;;;10.60;3.47;;;20.60;99.90;;;;;;5054988;28;25064;-74
2022/08/23 02:39:50;;;;;;;6.38;2.67;;;20.70;99.90;;;;;;5046882;28;25057;-76
2022/08/23 02:42:16;;;;;;;3.75;2.83;;;20.70;99.90;;;;;;5051320;28;25158;-73
2022/08/23 02:44:42;;;;;;;8.30;3.13;;;20.70;99.90;;;;;;5047077;28;25121;-74
2022/08/23 02:47:08;;;;;;;6.45;2.70;;;20.70;99.90;;;;;;5056539;28;25072;-74
2022/08/23 02:49:34;;;;;;;11.48;2.92;;;20.70;99.90;;;;;;5054926;28;25135;-73
2022/08/23 02:52:00;;;;;;;6.60;2.97;;;20.90;99.90;;;;;;5055790;28;25140;-74
2022/08/23 02:54:25;;;;;;;6.53;2.80;;;21.00;99.90;;;;;;5058431;28;25051;-73
2022/08/23 02:56:51;;;;;;;4.85;2.90;;;20.90;99.90;;;;;;5055456;28;25091;-75
2022/08/23 02:59:17;;;;;;;8.85;3.38;;;21.00;99.90;;;;;;5056723;28;25120;-76
2022/08/23 03:01:44;;;;;;;8.68;3.50;;;21.10;99.90;;;;;;5065712;28;25131;-74
2022/08/23 03:04:10;;;;;;;11.77;4.00;;;21.20;99.90;;;;;;5060975;28;25045;-74
2022/08/23 03:06:36;;;;;;;7.43;3.28;;;21.30;99.90;;;;;;5068581;28;25077;-74
2022/08/23 03:09:03;;;;;;;5.88;3.42;;;21.30;99.90;;;;;;5062648;28;25066;-75
2022/08/23 03:11:29;;;;;;;6.88;2.88;;;21.10;99.90;;;;;;5069976;28;25097;-75
2022/08/23 03:13:57;;;;;;;6.03;2.90;;;21.10;99.90;;;;;;5066010;28;25145;-73
2022/08/23 03:16:24;;;;;;;5.90;3.10;;;21.20;99.90;;;;;;5077339;28;25071;-74
2022/08/23 03:18:50;;;;;;;5.15;3.25;;;21.30;99.90;;;;;;5060895;28;25052;-74
2022/08/23 03:21:17;;;;;;;13.02;3.42;;;21.30;99.90;;;;;;5069516;28;25075;-75
2022/08/23 03:23:43;;;;;;;7.07;3.00;;;21.40;99.90;;;;;;5074872;28;25068;-72
2022/08/23 03:26:11;;;;;;;5.80;3.20;;;21.30;99.90;;;;;;5064668;28;25086;-74
2022/08/23 03:28:39;;;;;;;6.07;3.35;;;21.20;99.90;;;;;;5057053;28;25073;-74
2022/08/23 03:31:06;;;;;;;7.60;3.88;;;21.20;99.90;;;;;;5059018;28;25052;-74
2022/08/23 03:33:31;;;;;;;8.52;3.35;;;21.20;99.90;;;;;;5065337;28;25088;-73
2022/08/23 03:36:03;;;;;;;11.25;3.97;;;21.20;99.90;;;;;;5066695;28;25110;-74
2022/08/23 03:38:29;;;;;;;8.95;3.60;;;21.10;99.90;;;;;;5053872;28;25063;-73
2022/08/23 03:40:54;;;;;;;7.28;3.45;;;21.00;99.90;;;;;;5057190;28;25085;-75
2022/08/23 03:43:20;;;;;;;6.35;3.60;;;21.10;99.90;;;;;;5058118;28;25053;-74
2022/08/23 03:45:46;;;;;;;9.63;4.10;;;21.10;99.90;;;;;;5074719;28;25069;-73
2022/08/23 03:48:12;;;;;;;5.35;3.08;;;21.00;99.90;;;;;;5057423;28;25128;-73
2022/08/23 03:50:38;;;;;;;9.35;4.05;;;21.00;99.90;;;;;;5064175;28;25162;-77
2022/08/23 03:53:04;;;;;;;5.30;3.08;;;21.00;99.90;;;;;;5065824;28;25060;-75
2022/08/23 03:55:30;;;;;;;9.77;3.50;;;21.00;99.90;;;;;;5060983;28;25166;-75
2022/08/23 03:57:56;;;;;;;7.00;3.80;;;21.00;99.90;;;;;;5058618;28;25095;-74
2022/08/23 04:00:21;;;;;;;16.52;4.75;;;21.10;99.90;;;;;;5059151;28;25079;-72
2022/08/23 04:02:47;;;;;;;4.47;3.42;;;21.10;99.90;;;;;;5069929;28;25130;-74
2022/08/23 04:05:12;;;;;;;7.68;4.32;;;21.10;99.90;;;;;;5059536;28;25118;-74
2022/08/23 04:07:39;;;;;;;9.27;4.00;;;21.10;99.90;;;;;;5057030;28;25072;-75
2022/08/23 04:10:06;;;;;;;9.48;3.30;;;21.10;99.90;;;;;;5067664;28;25078;-73
2022/08/23 04:12:32;;;;;;;9.10;3.92;;;21.10;99.90;;;;;;5073426;28;25120;-74
2022/08/23 04:14:58;;;;;;;10.65;3.97;;;21.00;99.90;;;;;;5067179;28;25061;-74
2022/08/23 04:17:23;;;;;;;8.40;3.92;;;21.00;99.90;;;;;;5064177;28;25072;-76
2022/08/23 04:19:49;;;;;;;5.32;3.10;;;20.90;99.90;;;;;;5077932;28;25063;-76
2022/08/23 04:22:17;;;;;;;12.00;3.58;;;20.80;99.90;;;;;;5068719;28;25064;-75
2022/08/23 04:24:44;;;;;;;8.57;4.10;;;20.70;99.90;;;;;;5080467;28;25075;-74
2022/08/23 04:27:10;;;;;;;9.32;3.78;;;20.80;99.90;;;;;;5065147;28;25097;-75
2022/08/23 04:29:37;;;;;;;9.10;3.47;;;20.90;99.90;;;;;;5062810;28;25070;-74
2022/08/23 04:32:03;;;;;;;7.07;3.17;;;21.00;99.90;;;;;;5062450;28;25104;-76
2022/08/23 04:34:31;;;;;;;6.28;3.80;;;21.10;99.90;;;;;;5071346;28;25174;-76
2022/08/23 04:36:57;;;;;;;7.43;3.45;;;21.10;99.90;;;;;;5069695;28;25103;-74
2022/08/23 04:39:22;;;;;;;5.97;3.42;;;21.00;99.90;;;;;;5066380;28;25083;-75
2022/08/23 04:44:32;;;;;;;5.22;3.42;;;20.90;99.90;;;;;;5062872;28;25059;-74
2022/08/23 04:46:57;;;;;;;6.88;3.65;;;20.80;99.90;;;;;;5067590;28;25079;-74
2022/08/23 04:49:23;;;;;;;6.93;3.83;;;20.70;99.90;;;;;;5068347;28;25064;-75
2022/08/23 04:51:49;;;;;;;7.30;3.75;;;20.70;99.90;;;;;;5060919;28;25063;-74
2022/08/23 04:54:15;;;;;;;9.85;4.72;;;20.80;99.90;;;;;;5059715;28;25056;-75
2022/08/23 04:56:41;;;;;;;7.40;3.10;;;20.80;99.90;;;;;;5065746;28;25078;-75
2022/08/23 04:59:07;;;;;;;8.05;3.80;;;20.80;99.90;;;;;;5063346;28;25066;-74
2022/08/23 05:01:33;;;;;;;9.43;3.67;;;20.80;99.90;;;;;;5053316;28;25056;-75
2022/08/23 05:04:00;;;;;;;10.63;4.15;;;20.70;99.90;;;;;;5049355;28;25133;-75
2022/08/23 05:06:28;;;;;;;11.38;3.78;;;20.70;99.90;;;;;;5064643;28;25074;-75
2022/08/23 05:08:53;;;;;;;9.00;3.95;;;20.70;99.90;;;;;;5065034;28;25062;-78
2022/08/23 05:11:19;;;;;;;12.45;4.03;;;20.70;99.90;;;;;;5070791;28;25057;-77
2022/08/23 05:13:45;;;;;;;6.00;4.15;;;20.70;99.90;;;;;;5071484;28;25167;-77
2022/08/23 05:16:11;;;;;;;9.10;3.97;;;20.70;99.90;;;;;;5054602;28;25138;-78
2022/08/23 05:18:36;;;;;;;13.98;5.72;;;20.80;99.90;;;;;;5052739;28;25074;-76
2022/08/23 05:21:03;;;;;;;11.73;4.03;;;20.80;99.90;;;;;;5060062;28;25055;-77
2022/08/23 05:23:28;;;;;;;11.00;4.65;;;20.80;99.90;;;;;;5062487;28;25089;-77
2022/08/23 05:25:54;;;;;;;14.20;4.10;;;20.80;99.90;;;;;;5053956;28;25095;-75
2022/08/23 05:28:33;;;;;;;7.68;4.03;;;20.90;99.90;;;;;;5067543;28;25075;-76
2022/08/23 05:31:06;;;;;;;8.80;4.35;;;21.00;99.90;;;;;;5059025;28;25072;-77
2022/08/23 05:33:33;;;;;;;9.98;4.72;;;21.00;99.90;;;;;;5085446;28;25064;-77
2022/08/23 05:36:00;;;;;;;10.90;4.47;;;21.00;99.90;;;;;;5073155;28;25058;-75
2022/08/23 05:38:27;;;;;;;7.70;4.85;;;21.00;99.90;;;;;;5075104;28;25140;-76
2022/08/23 05:40:56;;;;;;;11.45;4.35;;;21.10;99.90;;;;;;5075937;28;24980;-78
2022/08/23 05:43:21;;;;;;;12.05;4.57;;;21.10;99.90;;;;;;5064669;28;25144;-76
2022/08/23 05:45:47;;;;;;;7.20;4.40;;;21.10;99.90;;;;;;5069406;28;25055;-78
2022/08/23 05:48:14;;;;;;;8.15;4.90;;;21.10;99.90;;;;;;5083077;28;25076;-76
2022/08/23 05:50:40;;;;;;;9.27;4.40;;;21.10;99.90;;;;;;5059859;28;25054;-75
2022/08/23 05:53:09;;;;;;;10.70;5.68;;;21.20;99.90;;;;;;5069924;28;25063;-76
2022/08/23 05:55:35;;;;;;;9.43;5.22;;;21.10;99.90;;;;;;5057250;28;25076;-76
2022/08/23 05:58:01;;;;;;;7.65;5.28;;;21.10;99.90;;;;;;5063769;28;25079;-76
2022/08/23 06:00:27;;;;;;;14.70;5.55;;;21.20;99.90;;;;;;5053066;28;25091;-75
2022/08/23 06:02:53;;;;;;;13.77;5.45;;;21.10;99.90;;;;;;5057682;28;25060;-76
2022/08/23 06:05:19;;;;;;;9.30;5.40;;;21.20;99.90;;;;;;5053961;28;25140;-76
2022/08/23 06:07:45;;;;;;;14.30;4.95;;;21.10;99.90;;;;;;5071834;28;25147;-76
2022/08/23 06:10:11;;;;;;;13.82;5.30;;;21.20;99.90;;;;;;5053295;28;25091;-76
2022/08/23 06:12:36;;;;;;;11.75;7.05;;;21.20;99.90;;;;;;5058413;28;25015;-76
2022/08/23 06:15:02;;;;;;;10.95;6.57;;;21.30;99.90;;;;;;5069624;28;25071;-76
2022/08/23 06:17:28;;;;;;;12.25;6.95;;;21.30;99.90;;;;;;5065943;28;25123;-77
2022/08/23 06:19:54;;;;;;;9.73;6.85;;;21.40;99.90;;;;;;5059539;28;25053;-78
2022/08/23 06:22:20;;;;;;;9.60;6.30;;;21.40;99.90;;;;;;5074078;28;25171;-77
2022/08/23 06:24:46;;;;;;;9.18;6.32;;;21.50;99.90;;;;;;5060622;28;25101;-75
2022/08/23 06:27:12;;;;;;;11.15;7.45;;;21.70;99.90;;;;;;5058021;28;25077;-77
2022/08/23 06:29:38;;;;;;;16.85;7.00;;;21.80;99.90;;;;;;5066586;28;25086;-75
2022/08/23 06:32:04;;;;;;;19.67;7.50;;;21.90;99.90;;;;;;5055873;28;25037;-77
2022/08/23 06:34:37;;;;;;;14.13;7.22;;;21.90;99.90;;;;;;5055403;28;25064;-76
2022/08/23 06:37:05;;;;;;;12.68;7.93;;;21.90;99.90;;;;;;5054470;28;25082;-75
2022/08/23 06:39:32;;;;;;;14.30;7.72;;;21.90;99.90;;;;;;5051243;28;25050;-74
2022/08/23 06:42:01;;;;;;;14.43;7.72;;;21.80;99.90;;;;;;5060294;28;25073;-75
2022/08/23 06:44:28;;;;;;;14.48;8.45;;;21.80;99.90;;;;;;5058150;28;25079;-78
2022/08/23 06:46:55;;;;;;;15.77;7.25;;;21.90;99.90;;;;;;5057249;28;25073;-79
2022/08/23 06:49:22;;;;;;;13.63;8.23;;;22.00;99.90;;;;;;5050839;28;25106;-76
2022/08/23 06:51:50;;;;;;;24.30;9.27;;;22.00;99.90;;;;;;5052227;28;25070;-76
2022/08/23 06:54:19;;;;;;;14.63;9.00;;;21.90;99.90;;;;;;5061673;28;25054;-74
2022/08/23 06:56:45;;;;;;;17.23;8.30;;;21.80;99.90;;;;;;5070306;28;25070;-76
2022/08/23 06:59:11;;;;;;;15.15;8.30;;;21.80;99.90;;;;;;5070735;28;25180;-76
2022/08/23 07:01:51;;;;;;;13.13;8.25;;;21.90;99.90;;;;;;5074134;28;25135;-77
2022/08/23 07:04:21;;;;;;;15.98;8.93;;;22.00;99.90;;;;;;5059868;28;25068;-75
2022/08/23 07:06:47;;;;;;;20.48;9.10;;;22.10;99.90;;;;;;5057845;28;25069;-76
2022/08/23 07:09:14;;;;;;;15.20;8.48;;;22.20;99.90;;;;;;5074451;28;25082;-77
2022/08/23 07:11:40;;;;;;;13.60;8.70;;;22.30;99.90;;;;;;5061539;28;25152;-76
2022/08/23 07:14:11;;;;;;;21.55;9.80;;;22.40;99.90;;;;;;5060705;28;25044;-76
2022/08/23 07:16:46;;;;;;;15.15;8.38;;;22.50;99.90;;;;;;5062899;28;25070;-74
2022/08/23 07:19:13;;;;;;;14.30;7.85;;;22.60;99.90;;;;;;5053651;28;25116;-76
2022/08/23 07:21:39;;;;;;;12.88;7.75;;;22.60;99.90;;;;;;5057140;28;25055;-75
2022/08/23 07:24:05;;;;;;;11.77;7.90;;;22.80;99.90;;;;;;5067949;28;25164;-75
2022/08/23 07:26:31;;;;;;;15.05;7.70;;;23.00;99.90;;;;;;5065751;28;25055;-77
2022/08/23 07:28:57;;;;;;;10.93;5.97;;;23.20;99.90;;;;;;5053099;28;25110;-75
2022/08/23 07:31:29;;;;;;;9.13;5.50;;;23.30;99.90;;;;;;5059270;28;25094;-76
2022/08/23 07:33:57;;;;;;;13.50;6.15;;;23.20;99.90;;;;;;5059830;28;25071;-74
2022/08/23 07:36:25;;;;;;;10.55;5.70;;;23.40;99.90;;;;;;5062563;28;25078;-76
2022/08/23 07:38:52;;;;;;;17.10;6.25;;;23.60;99.90;;;;;;5055430;28;25103;-76
2022/08/23 07:41:18;;;;;;;12.27;4.97;;;23.80;99.90;;;;;;5077191;28;25082;-77
2022/08/23 07:43:44;;;;;;;6.80;4.40;;;23.90;99.90;;;;;;5052878;28;25070;-74
2022/08/23 07:46:10;;;;;;;5.90;3.60;;;23.90;99.90;;;;;;5057198;28;25079;-74
2022/08/23 07:48:37;;;;;;;10.05;3.70;;;24.00;99.90;;;;;;5061879;28;25063;-76
2022/08/23 07:51:06;;;;;;;7.25;3.03;;;24.00;99.90;;;;;;5061920;28;25124;-74
2022/08/23 07:53:32;;;;;;;6.43;3.38;;;24.30;99.90;;;;;;5065124;28;25088;-73
2022/08/23 07:55:58;;;;;;;10.48;3.58;;;24.40;99.90;;;;;;5051948;28;25086;-75
2022/08/23 07:58:25;;;;;;;4.22;2.33;;;24.70;99.90;;;;;;5060714;28;25067;-75
2022/08/23 08:00:51;;;;;;;8.65;2.67;;;25.20;99.90;;;;;;5057334;28;25075;-80
2022/08/23 08:03:18;;;;;;;6.50;2.33;;;25.00;99.90;;;;;;5055155;28;25094;-74
2022/08/23 08:05:44;;;;;;;7.35;2.60;;;25.20;99.90;;;;;;5067009;28;25056;-74
2022/08/23 08:08:11;;;;;;;4.95;2.17;;;25.10;99.90;;;;;;5075676;28;25065;-75
2022/08/23 08:10:39;;;;;;;6.10;2.38;;;25.00;99.90;;;;;;5060377;28;25059;-75
2022/08/23 08:13:06;;;;;;;9.63;2.67;;;25.00;99.90;;;;;;5061058;28;25103;-75
2022/08/23 08:15:32;;;;;;;4.93;1.80;;;25.30;99.90;;;;;;5058568;28;25165;-75
2022/08/23 08:17:57;;;;;;;2.85;1.67;;;25.70;99.90;;;;;;5055027;28;25101;-74
2022/08/23 08:20:25;;;;;;;6.28;2.22;;;25.60;99.90;;;;;;5057600;28;25121;-75
2022/08/23 08:22:51;;;;;;;4.90;2.45;;;25.80;99.90;;;;;;5051707;28;25054;-75
2022/08/23 08:25:17;;;;;;;4.85;2.13;;;25.90;99.90;;;;;;5060985;28;25111;-75
2022/08/23 08:27:43;;;;;;;4.35;2.38;;;26.40;99.90;;;;;;5063411;28;25155;-75
2022/08/23 08:30:10;;;;;;;6.88;2.53;;;26.80;99.90;;;;;;5063117;28;25159;-75
2022/08/23 08:32:36;;;;;;;5.75;2.80;;;26.50;99.90;;;;;;5062636;28;25077;-74
2022/08/23 08:35:02;;;;;;;5.60;2.47;;;26.50;99.90;;;;;;5056548;28;25066;-74
2022/08/23 08:37:28;;;;;;;6.47;2.60;;;27.00;99.90;;;;;;5061116;28;25050;-74
2022/08/23 08:39:53;;;;;;;5.47;2.85;;;27.20;99.90;;;;;;5048538;28;25064;-74
2022/08/23 08:43:08;;;;;;;5.75;2.70;;;27.30;99.90;;;;;;5059515;28;25112;-74
2022/08/23 08:45:57;;;;;;;7.25;2.45;;;26.90;99.90;;;;;;5053996;28;25069;-77
2022/08/23 08:48:26;;;;;;;6.53;2.83;;;26.60;99.90;;;;;;5066592;28;25047;-75
2022/08/23 08:50:59;;;;;;;5.35;2.33;;;26.60;99.90;;;;;;5045679;28;25061;-74
2022/08/23 08:53:33;;;;;;;5.20;1.92;;;26.50;99.90;;;;;;5058576;28;25074;-76
2022/08/23 08:56:28;;;;;;;8.05;3.88;;;26.60;99.90;;;;;;5056724;28;25086;-76
2022/08/23 08:58:59;;;;;;;6.68;3.20;;;27.00;99.90;;;;;;5057024;28;25060;-74
2022/08/23 09:01:27;;;;;;;7.03;4.10;;;27.30;99.90;;;;;;5059511;28;25126;-74
2022/08/23 09:03:56;;;;;;;4.50;2.63;;;27.20;99.90;;;;;;5057401;28;25076;-75
2022/08/23 09:06:45;;;;;;;5.35;3.40;;;27.30;99.90;;;;;;5066200;28;25077;-76
2022/08/23 09:09:52;;;;;;;9.02;2.88;;;27.10;99.90;;;;;;5061351;28;25173;-74
2022/08/23 09:12:48;;;;;;;3.67;2.70;;;26.80;99.90;;;;;;5059298;28;25057;-75
2022/08/23 09:15:36;;;;;;;4.85;2.00;;;26.90;99.90;;;;;;5050410;28;25069;-74
2022/08/23 09:18:12;;;;;;;3.38;2.25;;;27.00;99.90;;;;;;5046003;28;25110;-75
2022/08/23 09:20:40;;;;;;;8.52;3.97;;;27.10;99.90;;;;;;5057919;28;25146;-74
2022/08/23 09:23:11;;;;;;;11.02;2.75;;;27.20;99.90;;;;;;5055804;28;25050;-73
2022/08/23 09:25:37;;;;;;;7.07;4.22;;;27.10;99.90;;;;;;5055495;28;25064;-76
2022/08/23 09:28:03;;;;;;;7.65;4.18;;;26.80;99.90;;;;;;5052197;28;25146;-76
2022/08/23 09:30:47;;;;;;;7.25;4.30;;;26.50;99.90;;;;;;5052957;28;25077;-74
2022/08/23 09:33:18;;;;;;;9.82;4.18;;;26.60;99.90;;;;;;5058561;28;25099;-77
2022/08/23 09:36:03;;;;;;;7.18;3.30;;;26.80;99.90;;;;;;5057627;28;25078;-74
2022/08/23 09:38:28;;;;;;;10.27;3.67;;;27.00;99.90;;;;;;5052784;28;25045;-77
2022/08/23 09:40:54;;;;;;;11.23;4.25;;;27.40;99.90;;;;;;5050380;28;25083;-75
2022/08/23 09:43:26;;;;;;;7.63;3.15;;;27.30;99.90;;;;;;5056308;28;25161;-75
2022/08/23 09:45:55;;;;;;;10.75;3.95;;;27.40;99.90;;;;;;5044427;28;25059;-77
2022/08/23 09:48:36;;;;;;;5.57;2.75;;;27.70;99.90;;;;;;5056485;28;25049;-74
2022/08/23 09:51:15;;;;;;;6.95;4.10;;;28.00;99.90;;;;;;5054567;28;25090;-74
2022/08/23 09:54:02;;;;;;;25.30;7.15;;;28.30;99.90;;;;;;5058807;28;25106;-76
2022/08/23 09:56:32;;;;;;;11.32;3.78;;;28.40;99.90;;;;;;5049964;28;25086;-74
2022/08/23 09:58:58;;;;;;;10.55;4.47;;;28.20;99.90;;;;;;5052040;28;25121;-74
2022/08/23 10:01:26;;;;;;;6.28;2.90;;;28.00;99.90;;;;;;5049507;28;25136;-74
2022/08/23 10:04:13;;;;;;;5.15;3.33;;;28.00;99.90;;;;;;5047450;28;25143;-75
2022/08/23 10:06:42;;;;;;;7.88;3.30;;;27.90;99.90;;;;;;5053116;28;25081;-74
2022/08/23 10:09:20;;;;;;;5.85;3.25;;;28.00;99.90;;;;;;5048953;28;25139;-77
2022/08/23 10:11:45;;;;;;;8.18;3.97;;;28.00;99.90;;;;;;5056348;28;25102;-74
2022/08/23 10:14:16;;;;;;;8.60;3.28;;;27.90;99.90;;;;;;5053997;28;25110;-74
2022/08/23 10:17:08;;;;;;;5.15;3.13;;;27.70;99.90;;;;;;5059903;28;25151;-74
2022/08/23 10:19:58;;;;;;;6.35;3.45;;;27.80;99.90;;;;;;5059254;28;25062;-72
2022/08/23 10:22:27;;;;;;;8.55;5.05;;;27.70;99.90;;;;;;5060370;28;25061;-73
2022/08/23 10:25:32;;;;;;;10.77;3.53;;;27.90;99.90;;;;;;5045694;28;25135;-74
2022/08/23 10:31:14;;;;;;;6.30;3.63;;;28.10;99.90;;;;;;5014688;28;25091;-75
2022/08/23 10:34:12;;;;;;;7.65;3.10;;;28.50;99.90;;;;;;5051461;28;25051;-73
2022/08/23 10:37:13;;;;;;;6.00;2.90;;;28.50;99.90;;;;;;5056874;28;25075;-75
2022/08/23 10:39:52;;;;;;;6.75;3.63;;;28.80;99.90;;;;;;5056005;28;25099;-74
2022/08/23 10:42:27;;;;;;;6.45;3.17;;;28.70;99.90;;;;;;5059937;28;25089;-75
2022/08/23 10:45:03;;;;;;;8.43;4.03;;;29.10;99.90;;;;;;5045076;28;25136;-74
2022/08/23 10:48:03;;;;;;;7.75;3.90;;;29.20;99.90;;;;;;5047396;28;25162;-74
2022/08/23 10:50:38;;;;;;;6.82;4.32;;;28.90;99.90;;;;;;5048801;28;25085;-73
2022/08/23 10:53:09;;;;;;;4.32;2.83;;;28.90;99.90;;;;;;5061237;28;25087;-74
2022/08/23 10:56:04;;;;;;;8.25;3.72;;;28.90;99.90;;;;;;5057055;28;25132;-74
2022/08/23 10:58:51;;;;;;;9.10;3.95;;;29.10;99.90;;;;;;5062851;28;25175;-74
2022/08/23 11:01:31;;;;;;;6.72;3.30;;;29.30;99.90;;;;;;5044919;28;25062;-75
2022/08/23 11:04:04;;;;;;;6.82;3.88;;;29.10;99.90;;;;;;5054896;28;25147;-73
2022/08/23 11:06:36;;;;;;;9.20;3.05;;;28.80;99.90;;;;;;5049223;28;25093;-74
2022/08/23 11:09:16;;;;;;;4.25;2.78;;;28.80;99.90;;;;;;5065915;28;25077;-74
2022/08/23 11:12:00;;;;;;;8.25;2.70;;;29.20;99.90;;;;;;5058629;28;25059;-74
2022/08/23 11:14:37;;;;;;;5.45;3.53;;;29.80;99.90;;;;;;5066655;28;25072;-74
2022/08/23 11:17:10;;;;;;;5.97;3.13;;;29.90;99.90;;;;;;5056176;28;25169;-75
2022/08/23 11:19:47;;;;;;;8.90;4.93;;;29.40;99.90;;;;;;5058289;28;25088;-74
2022/08/23 11:22:22;;;;;;;9.75;3.58;;;29.80;99.90;;;;;;5063780;28;25049;-75
2022/08/23 11:24:49;;;;;;;6.63;2.92;;;30.10;99.90;;;;;;5059971;28;25161;-75
2022/08/23 11:27:27;;;;;;;8.45;4.15;;;30.00;99.90;;;;;;5060649;28;25105;-75
2022/08/23 11:29:52;;;;;;;8.10;3.22;;;30.10;99.90;;;;;;5068062;28;25139;-78
2022/08/23 11:32:38;;;;;;;5.13;3.97;;;30.00;99.90;;;;;;5084220;28;25066;-75
2022/08/23 11:35:29;;;;;;;4.88;3.33;;;29.60;99.90;;;;;;5069808;28;25078;-74
2022/08/23 11:37:58;;;;;;;7.30;3.53;;;29.60;99.90;;;;;;5078729;28;25081;-78
2022/08/23 11:40:42;;;;;;;6.20;3.83;;;29.80;99.90;;;;;;5071515;28;25059;-73
2022/08/23 11:43:23;;;;;;;12.15;3.70;;;30.30;99.90;;;;;;5057392;28;25053;-75
2022/08/23 11:45:49;;;;;;;7.50;3.30;;;30.70;99.90;;;;;;5052586;28;25127;-75
2022/08/23 11:48:34;;;;;;;10.73;3.80;;;31.00;99.90;;;;;;5066752;28;25046;-74
2022/08/23 11:51:24;;;;;;;5.45;2.88;;;31.20;98.80;;;;;;5054277;28;25110;-74
2022/08/23 11:53:52;;;;;;;5.13;2.50;;;30.50;98.40;;;;;;5059567;28;25056;-74
2022/08/23 11:56:18;;;;;;;5.90;2.90;;;30.60;99.10;;;;;;5054025;28;25051;-73
2022/08/23 11:59:02;;;;;;;4.78;3.17;;;30.70;99.80;;;;;;5054026;28;25069;-73
2022/08/23 12:01:36;;;;;;;9.32;2.55;;;30.40;98.00;;;;;;5063252;28;25094;-72
2022/08/23 12:04:36;;;;;;;7.53;2.75;;;30.30;99.90;;;;;;5047538;28;25103;-73
2022/08/23 12:07:10;;;;;;;5.70;2.38;;;30.20;98.00;;;;;;5050740;28;25080;-75
2022/08/23 12:09:39;;;;;;;4.95;1.70;;;29.50;99.40;;;;;;5050506;28;25144;-74
2022/08/23 12:12:11;;;;;;;8.20;2.05;;;29.70;99.90;;;;;;5063531;28;25067;-70
2022/08/23 12:14:44;;;;;;;4.15;1.80;;;29.80;99.80;;;;;;5078799;28;25092;-75
2022/08/23 12:17:15;;;;;;;4.13;2.67;;;29.90;99.90;;;;;;5077847;28;25114;-72
2022/08/23 12:19:45;;;;;;;;;;;30.40;99.90;;;;;;5057433;28;25074;-74
2022/08/23 12:22:18;;;;;;;6.50;2.92;;;30.80;98.20;;;;;;5067248;28;25143;-75
2022/08/23 12:24:50;;;;;;;6.93;2.67;;;30.80;98.80;;;;;;5056907;28;25061;-74
2022/08/23 12:27:30;;;;;;;2.83;2.15;;;31.10;98.50;;;;;;5050996;28;25071;-72
2022/08/23 12:30:19;;;;;;;4.00;2.33;;;30.70;96.60;;;;;;5059237;28;25076;-73
2022/08/23 12:33:01;;;;;;;4.55;2.35;;;30.70;96.20;;;;;;5052458;28;25132;-74
2022/08/23 12:35:43;;;;;;;9.88;2.05;;;30.60;96.30;;;;;;5065737;28;25064;-72
2022/08/23 12:38:29;;;;;;;6.13;1.60;;;30.80;97.50;;;;;;5069111;28;25135;-74
2022/08/23 12:40:55;;;;;;;5.70;2.10;;;30.60;96.20;;;;;;5060331;28;25050;-75
2022/08/23 12:43:27;;;;;;;4.25;1.88;;;30.00;98.00;;;;;;5071606;28;25163;-75
2022/08/23 12:45:59;;;;;;;4.28;1.33;;;29.70;99.90;;;;;;5059548;28;25132;-77
2022/08/23 12:48:28;;;;;;;3.40;1.50;;;29.50;99.90;;;;;;5071503;28;25055;-75
2022/08/23 12:51:00;;;;;;;1.60;1.20;;;29.40;99.90;;;;;;5059900;28;25081;-73
2022/08/23 12:53:31;;;;;;;2.20;1.42;;;29.20;99.90;;;;;;5066744;28;25060;-74
2022/08/23 12:56:07;;;;;;;4.70;1.35;;;29.10;99.90;;;;;;5061052;28;25105;-75
2022/08/23 12:58:35;;;;;;;2.22;1.20;;;28.80;99.90;;;;;;5060627;28;25061;-75
2022/08/23 13:01:18;;;;;;;4.30;1.92;;;29.20;99.90;;;;;;5059932;28;25058;-75
2022/08/23 13:03:51;;;;;;;4.78;1.75;;;30.10;99.90;;;;;;5059801;28;25184;-73
2022/08/23 13:06:24;;;;;;;2.35;2.10;;;30.60;99.90;;;;;;5060695;28;25126;-74
2022/08/23 13:09:03;;;;;;;5.10;2.20;;;30.60;99.90;;;;;;5054824;28;25056;-76
2022/08/23 13:11:32;;;;;;;4.63;1.92;;;30.50;99.90;;;;;;5065151;28;25048;-73
2022/08/23 13:13:58;;;;;;;4.10;2.30;;;30.60;99.90;;;;;;5062714;28;25075;-73
2022/08/23 13:16:32;;;;;;;4.90;2.75;;;30.60;99.90;;;;;;5058428;28;25070;-74